• Join FlightAware (Why Join?)
  • Login
  • US Flag 
02:54AM EDT


 

Airport Tracker/Info


-or-


 

Live Flight TrackerFlight Track Log ✈ PDT4226 ✈ 04-Feb-2014 ✈ KBGM - KPHL

Flight Track Log - Related Links

Times and Time Zones

All times are in EST time to prevent confusion due to time zone crossing. See the PDT4226 flight status page for this flight to view local times or setup timezone preferences in your user account.

Time Position Orientation Groundspeed Altitude Reporting Facility
EST Latitude Longitude Course Direction KTS MPH feet Rate Location/Type
01:43PM 42.0626 -75.9319 173° South  Level Estimated
01:44PM 42.0140 -75.9160 180° South  Level Estimated
01:45PM 41.9654 -75.9002 180° South  Level Estimated
01:46PM 41.9157 -75.9079 187° South  Level FlightAware Approximate
01:47PM 41.8660 -75.9155 187° South  Level FlightAware Approximate
01:48PM 41.8163 -75.9232 187° South  Level FlightAware Approximate
01:49PM 41.7666 -75.9308 187° South  Level FlightAware Approximate
01:50PM 41.7184 -75.9127 154° Southeast  Level Estimated
01:51PM 41.6702 -75.8947 160° South  Level Estimated
01:52PM 41.6220 -75.8767 159° South  Level Estimated
01:53PM 41.5768 -75.8482 155° Southeast  Level FlightAware Approximate
01:54PM 41.5315 -75.8198 155° Southeast  Level FlightAware Approximate
01:55PM 41.4832 -75.8025 153° Southeast  Level Estimated
01:56PM 41.4349 -75.7852 161° South  Level Estimated
01:57PM 41.3893 -75.7576 156° South  Level FlightAware Approximate
01:58PM 41.3438 -75.7300 156° South  Level FlightAware Approximate
01:59PM 41.2983 -75.7024 156° South  Level FlightAware Approximate
02:00PM 41.2497 -75.6864 162° South  Level Estimated
02:01PM 41.2027 -75.6637 160° South  Level FlightAware Approximate
02:02PM 41.1556 -75.6412 160° South  Level FlightAware Approximate
02:03PM 41.1086 -75.6186 160° South  Level FlightAware Approximate
02:04PM 41.0615 -75.5961 160° South  Level FlightAware Approximate
02:05PM 41.0145 -75.5736 160° South  Level FlightAware Approximate
02:06PM 40.9656 -75.5591 163° South  Level Estimated
02:07PM 40.9182 -75.5383 162° South  Level FlightAware Approximate
02:08PM 40.8707 -75.5174 162° South  Level FlightAware Approximate
02:09PM 40.8232 -75.4966 162° South  Level FlightAware Approximate
02:10PM 40.7757 -75.4758 162° South  Level FlightAware Approximate
02:10PM 40.6167 -75.6500 187° South 224 258 5,500  Level Philadelphia TRACON
02:11PM 40.7267 -75.4629 190° South  Level Estimated
02:11PM 40.5500 -75.6167 159° South 221 254 5,100  Level Philadelphia TRACON
02:12PM 40.6770 -75.4710 187° South  Level FlightAware Approximate
02:12PM 40.5000 -75.5833 153° Southeast 218 251 5,000  Level Philadelphia TRACON
02:13PM 40.6274 -75.4792 187° South  Level FlightAware Approximate
02:13PM 40.4500 -75.5500 153° Southeast 214 246 5,000  Level Philadelphia TRACON
02:14PM 40.5778 -75.4873 187° South  Level FlightAware Approximate
02:14PM 40.4000 -75.5000 143° Southeast 213 245 5,000  Level Philadelphia TRACON
02:15PM 40.5281 -75.4954 187° South  Level FlightAware Approximate
02:15PM 40.3500 -75.4500 143° Southeast 213 245 5,100  Level Philadelphia TRACON
02:16PM 40.3000 -75.4000 143° Southeast 214 246 5,000 -60 Descending Philadelphia TRACON
02:17PM 40.2667 -75.3667 143° Southeast 215 247 5,000 -180 Level Philadelphia TRACON
02:18PM 40.2167 -75.3167 143° Southeast 215 247 4,700 -540 Descending Philadelphia TRACON
02:19PM 40.1667 -75.2667 143° Southeast 222 255 4,000 -360 Descending Philadelphia TRACON
02:20PM 40.1167 -75.2333 153° Southeast 193 222 4,000  Level Philadelphia TRACON
02:21PM 40.0667 -75.2000 153° Southeast 199 229 4,000  Level Philadelphia TRACON
02:22PM 40.0000 -75.1833 169° South 204 235 4,000  Level Philadelphia TRACON
02:23PM 39.9500 -75.1500 153° Southeast 200 230 4,000  Level Philadelphia TRACON
02:24PM 39.9000 -75.1333 166° South 201 231 4,000 -420 Level Philadelphia TRACON
02:25PM 39.8500 -75.1000 153° Southeast 183 211 3,200 -1,020 Descending Philadelphia TRACON
02:26PM 39.8000 -75.1000 180° South 183 211 2,000 -780 Descending Philadelphia TRACON
02:27PM 39.7667 -75.1500 229° Southwest 171 197 1,600 -240 Descending Philadelphia TRACON
02:28PM 39.8000 -75.1833 322° Northwest 174 200 1,600 -360 Level Philadelphia TRACON
02:29PM 39.8333 -75.2167 322° Northwest 111 128 1,000 -600 Descending Philadelphia TRACON
02:30PM 39.8667 -75.2167 360° North 119 137 400 -720 Descending Philadelphia TRACON